Beccles, United Kingdom
Current Conditions -  °F | °C
As of 6:20 AM on Monday 26 Jan 2015 (Local Time) from EGSD Reporting Station
Scattered Clouds Scattered Clouds  
Wind Chill: 39°   Ceiling: Unl
Heat Index: 45°   Visibility: 6mi
Dew Point: 45°   Wind: 10mph
Humidity: 100%   Direction: 240°WSW
Pressure: 30.06"   Gusts: NA
Location:  52.45°N, 1.56°E
Report Text: EGSD 260620Z 24009KT 9999 SCT014 07/07 Q1018
Loading
Personal Weather Stations






























Interactive Weather Map New forecast layout! Learn more

10-Day Weather Forecast

Advertisements
Track Severe Weather on mobile